Space Coast Regional Airport
KTIX : rendu visible

Aérodrome :











RETROUVEZ-NOUS SUR...

 
LOGIN :

S'inscrire | Disclaimer

   EN    FR    IT 

 









Légende :    VFR   VFR Marginal   IFR   IFR Intensif   IFR Très Intensif
Visi : 
Plafond : 
>= 8 km
>= 3000ft
5 à 8 km
1000 à 3000 ft
1500m à 5 km
500 à 1000 ft
800 à 1500m
200 à 500 ft
< 800m
< 200 ft
Symboles :   Orages  Brouillard  Fortes neiges  Fortes précipitations  Vent > 20 kt






- Altitude de l'aérodrome : 34 ft


KTIX - Space Coast Regional

DERNIER METAR :
  • 032246Z 22006KT 7SM BKN050 32/24 A2989

METARs EXPIRÉS :
  • 032150Z 22007KT 7SM BKN060 32/24 A2988
  • 032050Z 20004KT 7SM BKN095 31/23 A2990

TAF KTIX
Valide du 03 à 19h jusqu'au 04 à 18h UTC


031900Z 0319/0418 24008KT P6SM VCTS SCT035CB BKN060 BKN250
FM032200 26008KT P6SM VCSH SCT030 BKN050 BKN250
FM040100 26005KT P6SM SCT100 BKN250
FM041400 27007KT P6SM SCT025 SCT250
FIR KZMA / Amérique du Nord



MET'MAP, la Météo Aéronautique d'un coup d'oeil ! - Copyright ORBIFLY Décembre 2007 - Disclaimer

ORBIFLY MET'MAP TEAM :

Programmation & Développement : Alexandra Zaïnal
Sur une idée originale de : Baudouin d'Aumeries
Assistance à la programmation : Marc-Olivier Méhu
Soutien technique & logistique : Manuel Goepfert

Contact : metmap@orbifly.com




SOURCES & CREDITS :

   NOAA       Earth
Advisory